sensor_id;sensor_type;location;lat;lon;timestamp;pressure;altitude;pressure_sealevel;temperature;humidity
70229;BME280;57617;51.988;5.854;2022-07-12T00:01:29;101984.75;;;19.40;66.87
70229;BME280;57617;51.988;5.854;2022-07-12T00:03:55;101983.09;;;19.39;66.96
70229;BME280;57617;51.988;5.854;2022-07-12T00:06:20;101979.22;;;19.40;67.33
70229;BME280;57617;51.988;5.854;2022-07-12T00:08:45;101982.84;;;19.41;67.38
70229;BME280;57617;51.988;5.854;2022-07-12T00:11:10;101974.03;;;19.39;67.47
70229;BME280;57617;51.988;5.854;2022-07-12T00:13:36;101967.94;;;19.37;67.80
70229;BME280;57617;51.988;5.854;2022-07-12T00:16:01;101963.53;;;19.36;67.59
70229;BME280;57617;51.988;5.854;2022-07-12T00:18:26;101967.13;;;19.36;67.79
70229;BME280;57617;51.988;5.854;2022-07-12T00:20:51;101966.28;;;19.36;67.48
70229;BME280;57617;51.988;5.854;2022-07-12T00:23:17;101959.13;;;19.35;67.86
70229;BME280;57617;51.988;5.854;2022-07-12T00:25:43;101966.28;;;19.36;67.85
70229;BME280;57617;51.988;5.854;2022-07-12T00:28:08;101962.16;;;19.38;67.69
70229;BME280;57617;51.988;5.854;2022-07-12T00:30:33;101955.28;;;19.41;67.79
70229;BME280;57617;51.988;5.854;2022-07-12T00:32:59;101957.50;;;19.44;67.99
70229;BME280;57617;51.988;5.854;2022-07-12T00:35:24;101952.28;;;19.47;67.98
70229;BME280;57617;51.988;5.854;2022-07-12T00:37:50;101958.59;;;19.48;67.81
70229;BME280;57617;51.988;5.854;2022-07-12T00:40:15;101959.69;;;19.47;67.69
70229;BME280;57617;51.988;5.854;2022-07-12T00:42:41;101946.47;;;19.44;67.74
70229;BME280;57617;51.988;5.854;2022-07-12T00:45:07;101955.31;;;19.51;68.50
70229;BME280;57617;51.988;5.854;2022-07-12T00:47:38;101948.41;;;19.53;68.71
70229;BME280;57617;51.988;5.854;2022-07-12T00:50:11;101956.97;;;19.57;68.72
70229;BME280;57617;51.988;5.854;2022-07-12T00:52:37;101950.06;;;19.59;68.21
70229;BME280;57617;51.988;5.854;2022-07-12T00:55:04;101955.88;;;19.63;68.56
70229;BME280;57617;51.988;5.854;2022-07-12T00:57:32;101941.81;;;19.64;68.09
70229;BME280;57617;51.988;5.854;2022-07-12T00:59:58;101944.31;;;19.66;68.36
70229;BME280;57617;51.988;5.854;2022-07-12T01:02:23;101939.63;;;19.61;68.26
70229;BME280;57617;51.988;5.854;2022-07-12T01:04:50;101956.44;;;19.65;68.26
70229;BME280;57617;51.988;5.854;2022-07-12T01:07:16;101958.34;;;19.64;68.32
70229;BME280;57617;51.988;5.854;2022-07-12T01:09:42;101951.47;;;19.62;68.29
70229;BME280;57617;51.988;5.854;2022-07-12T01:12:08;101959.19;;;19.65;68.37
70229;BME280;57617;51.988;5.854;2022-07-12T01:14:34;101950.91;;;19.60;68.46
70229;BME280;57617;51.988;5.854;2022-07-12T01:17:00;101958.34;;;19.64;68.40
70229;BME280;57617;51.988;5.854;2022-07-12T01:19:26;101968.84;;;19.67;68.42
70229;BME280;57617;51.988;5.854;2022-07-12T01:21:53;101976.28;;;19.67;68.51
70229;BME280;57617;51.988;5.854;2022-07-12T01:24:19;101976.28;;;19.67;68.38
70229;BME280;57617;51.988;5.854;2022-07-12T01:26:46;101978.19;;;19.66;68.35
70229;BME280;57617;51.988;5.854;2022-07-12T01:29:12;101982.91;;;19.61;68.19
70229;BME280;57617;51.988;5.854;2022-07-12T01:31:38;101979.28;;;19.55;68.57
70229;BME280;57617;51.988;5.854;2022-07-12T01:34:03;101980.38;;;19.49;68.58
70229;BME280;57617;51.988;5.854;2022-07-12T01:36:29;101988.88;;;19.43;68.60
70229;BME280;57617;51.988;5.854;2022-07-12T01:38:55;101993.00;;;19.40;68.63
70229;BME280;57617;51.988;5.854;2022-07-12T01:41:22;101991.63;;;19.38;68.34
70229;BME280;57617;51.988;5.854;2022-07-12T01:43:48;101996.59;;;19.36;68.96
70229;BME280;57617;51.988;5.854;2022-07-12T01:46:13;101980.53;;;19.23;68.66
70229;BME280;57617;51.988;5.854;2022-07-12T01:48:39;102002.91;;;19.31;68.70
70229;BME280;57617;51.988;5.854;2022-07-12T01:51:04;101994.91;;;19.25;68.72
70229;BME280;57617;51.988;5.854;2022-07-12T01:53:30;102000.94;;;19.22;68.88
70229;BME280;57617;51.988;5.854;2022-07-12T01:55:55;102008.06;;;19.18;69.00
70229;BME280;57617;51.988;5.854;2022-07-12T01:58:21;102004.19;;;19.14;68.79
70229;BME280;57617;51.988;5.854;2022-07-12T02:00:47;102004.16;;;19.09;68.86
70229;BME280;57617;51.988;5.854;2022-07-12T02:03:17;102002.50;;;19.08;68.70
70229;BME280;57617;51.988;5.854;2022-07-12T02:05:42;102002.78;;;19.06;68.71
70229;BME280;57617;51.988;5.854;2022-07-12T02:08:08;101996.97;;;19.03;68.54
70229;BME280;57617;51.988;5.854;2022-07-12T02:10:33;101987.84;;;18.97;68.72
70229;BME280;57617;51.988;5.854;2022-07-12T02:13:02;101993.06;;;18.94;68.89
70229;BME280;57617;51.988;5.854;2022-07-12T02:15:28;101987.25;;;18.90;68.77
70229;BME280;57617;51.988;5.854;2022-07-12T02:17:53;101984.19;;;18.87;68.74
70229;BME280;57617;51.988;5.854;2022-07-12T02:20:18;101982.25;;;18.82;69.03
70229;BME280;57617;51.988;5.854;2022-07-12T02:22:44;101975.91;;;18.82;68.98
70229;BME280;57617;51.988;5.854;2022-07-12T02:25:09;101975.91;;;18.82;69.03
70229;BME280;57617;51.988;5.854;2022-07-12T02:27:34;101973.72;;;18.84;69.10
70229;BME280;57617;51.988;5.854;2022-07-12T02:29:59;101977.03;;;18.86;69.03
70229;BME280;57617;51.988;5.854;2022-07-12T02:32:25;101971.56;;;18.91;69.11
70229;BME280;57617;51.988;5.854;2022-07-12T02:34:50;101979.84;;;18.96;68.98
70229;BME280;57617;51.988;5.854;2022-07-12T02:37:16;101977.94;;;18.96;69.00
70229;BME280;57617;51.988;5.854;2022-07-12T02:39:41;101974.91;;;18.98;68.87
70229;BME280;57617;51.988;5.854;2022-07-12T02:42:06;101974.06;;;18.97;69.00
70229;BME280;57617;51.988;5.854;2022-07-12T02:44:31;101978.19;;;18.95;68.79
70229;BME280;57617;51.988;5.854;2022-07-12T02:46:57;101980.06;;;18.89;68.97
70229;BME280;57617;51.988;5.854;2022-07-12T02:49:22;101976.78;;;18.87;69.05
70229;BME280;57617;51.988;5.854;2022-07-12T02:51:47;101983.94;;;18.88;69.16
70229;BME280;57617;51.988;5.854;2022-07-12T02:54:13;101983.13;;;18.88;69.10
70229;BME280;57617;51.988;5.854;2022-07-12T02:56:38;101964.38;;;18.85;69.14
70229;BME280;57617;51.988;5.854;2022-07-12T02:59:03;101978.44;;;18.93;69.24
70229;BME280;57617;51.988;5.854;2022-07-12T03:01:28;101982.59;;;18.96;69.47
70229;BME280;57617;51.988;5.854;2022-07-12T03:03:53;101976.56;;;18.99;69.35
70229;BME280;57617;51.988;5.854;2022-07-12T03:06:19;101979.88;;;19.01;69.10
70229;BME280;57617;51.988;5.854;2022-07-12T03:08:44;101976.84;;;19.02;69.23
70229;BME280;57617;51.988;5.854;2022-07-12T03:11:09;101978.78;;;19.07;69.36
70229;BME280;57617;51.988;5.854;2022-07-12T03:13:35;101985.13;;;19.07;69.50
70229;BME280;57617;51.988;5.854;2022-07-12T03:16:00;101979.38;;;19.09;69.68
70229;BME280;57617;51.988;5.854;2022-07-12T03:18:25;101982.66;;;19.11;69.61
70229;BME280;57617;51.988;5.854;2022-07-12T03:20:50;101990.69;;;19.12;69.53
70229;BME280;57617;51.988;5.854;2022-07-12T03:23:16;101984.91;;;19.14;69.78
70229;BME280;57617;51.988;5.854;2022-07-12T03:25:41;101981.03;;;19.15;69.46
70229;BME280;57617;51.988;5.854;2022-07-12T03:28:06;101980.78;;;19.16;69.55
70229;BME280;57617;51.988;5.854;2022-07-12T03:30:32;101981.03;;;19.15;69.99
70229;BME280;57617;51.988;5.854;2022-07-12T03:32:57;101969.47;;;19.13;69.82
70229;BME280;57617;51.988;5.854;2022-07-12T03:35:22;101972.50;;;19.11;69.75
70229;BME280;57617;51.988;5.854;2022-07-12T03:37:50;101967.25;;;19.10;69.81
70229;BME280;57617;51.988;5.854;2022-07-12T03:40:17;101965.03;;;19.12;69.56
70229;BME280;57617;51.988;5.854;2022-07-12T03:42:43;101963.97;;;19.13;69.43
70229;BME280;57617;51.988;5.854;2022-07-12T03:45:12;101960.13;;;19.14;69.64
70229;BME280;57617;51.988;5.854;2022-07-12T03:47:39;101960.91;;;19.09;69.64
70229;BME280;57617;51.988;5.854;2022-07-12T03:50:06;101965.34;;;19.15;69.67
70229;BME280;57617;51.988;5.854;2022-07-12T03:52:32;101966.72;;;19.13;69.59
70229;BME280;57617;51.988;5.854;2022-07-12T03:54:58;101960.66;;;19.16;69.55
70229;BME280;57617;51.988;5.854;2022-07-12T03:57:23;101957.38;;;19.19;69.62
70229;BME280;57617;51.988;5.854;2022-07-12T03:59:51;101957.94;;;19.21;69.83
70229;BME280;57617;51.988;5.854;2022-07-12T04:02:16;101955.16;;;19.21;69.83
70229;BME280;57617;51.988;5.854;2022-07-12T04:04:41;101953.53;;;19.20;69.82
70229;BME280;57617;51.988;5.854;2022-07-12T04:07:07;101956.28;;;19.20;69.91
70229;BME280;57617;51.988;5.854;2022-07-12T04:09:33;101952.69;;;19.19;70.16
70229;BME280;57617;51.988;5.854;2022-07-12T04:11:58;101955.44;;;19.19;70.02
70229;BME280;57617;51.988;5.854;2022-07-12T04:14:23;101960.94;;;19.19;70.02
70229;BME280;57617;51.988;5.854;2022-07-12T04:16:48;101960.13;;;19.19;70.36
70229;BME280;57617;51.988;5.854;2022-07-12T04:19:14;101959.28;;;19.18;70.10
70229;BME280;57617;51.988;5.854;2022-07-12T04:21:39;101963.16;;;19.17;69.85
70229;BME280;57617;51.988;5.854;2022-07-12T04:24:05;101967.00;;;19.16;70.31
70229;BME280;57617;51.988;5.854;2022-07-12T04:26:31;101957.91;;;19.16;70.38
70229;BME280;57617;51.988;5.854;2022-07-12T04:28:57;101967.28;;;19.15;70.35
70229;BME280;57617;51.988;5.854;2022-07-12T04:31:23;101977.19;;;19.16;70.27
70229;BME280;57617;51.988;5.854;2022-07-12T04:33:49;101984.06;;;19.13;70.27
70229;BME280;57617;51.988;5.854;2022-07-12T04:36:14;101986.53;;;19.10;70.12
70229;BME280;57617;51.988;5.854;2022-07-12T04:38:40;101996.69;;;19.04;70.57
70229;BME280;57617;51.988;5.854;2022-07-12T04:41:05;101991.72;;;19.01;70.39
70229;BME280;57617;51.988;5.854;2022-07-12T04:43:30;101993.63;;;19.01;70.45
70229;BME280;57617;51.988;5.854;2022-07-12T04:45:56;101985.38;;;19.01;70.54
70229;BME280;57617;51.988;5.854;2022-07-12T04:48:21;101970.16;;;18.88;70.27
70229;BME280;57617;51.988;5.854;2022-07-12T04:50:46;101983.19;;;18.98;70.70
70229;BME280;57617;51.988;5.854;2022-07-12T04:53:12;101987.00;;;18.97;70.43
70229;BME280;57617;51.988;5.854;2022-07-12T04:55:37;101974.91;;;18.98;70.52
70229;BME280;57617;51.988;5.854;2022-07-12T04:58:03;101973.56;;;19.00;70.60
70229;BME280;57617;51.988;5.854;2022-07-12T05:00:29;101986.50;;;19.05;70.55
70229;BME280;57617;51.988;5.854;2022-07-12T05:02:54;101984.28;;;19.07;70.59
70229;BME280;57617;51.988;5.854;2022-07-12T05:05:20;101990.94;;;19.11;70.56
70229;BME280;57617;51.988;5.854;2022-07-12T05:07:45;101992.06;;;19.15;70.60
70229;BME280;57617;51.988;5.854;2022-07-12T05:10:10;101976.00;;;19.02;70.37
70229;BME280;57617;51.988;5.854;2022-07-12T05:12:36;102003.38;;;19.18;70.70
70229;BME280;57617;51.988;5.854;2022-07-12T05:15:05;102000.63;;;19.18;70.45
70229;BME280;57617;51.988;5.854;2022-07-12T05:17:32;102008.63;;;19.20;70.55
70229;BME280;57617;51.988;5.854;2022-07-12T05:19:58;102010.03;;;19.22;70.58
70229;BME280;57617;51.988;5.854;2022-07-12T05:22:23;102011.44;;;19.25;70.85
70229;BME280;57617;51.988;5.854;2022-07-12T05:24:48;102013.63;;;19.28;70.62
70229;BME280;57617;51.988;5.854;2022-07-12T05:27:14;102019.72;;;19.30;70.81
70229;BME280;57617;51.988;5.854;2022-07-12T05:29:39;102026.34;;;19.34;71.07
70229;BME280;57617;51.988;5.854;2022-07-12T05:32:05;102027.75;;;19.36;71.02
70229;BME280;57617;51.988;5.854;2022-07-12T05:34:30;102033.81;;;19.38;70.94
70229;BME280;57617;51.988;5.854;2022-07-12T05:36:56;102040.69;;;19.41;71.02
70229;BME280;57617;51.988;5.854;2022-07-12T05:39:21;102043.47;;;19.41;70.93
70229;BME280;57617;51.988;5.854;2022-07-12T05:41:46;102043.47;;;19.46;70.93
70229;BME280;57617;51.988;5.854;2022-07-12T05:44:12;102042.97;;;19.49;71.32
70229;BME280;57617;51.988;5.854;2022-07-12T05:46:37;102042.41;;;19.52;71.09
70229;BME280;57617;51.988;5.854;2022-07-12T05:49:03;102038.84;;;19.51;71.25
70229;BME280;57617;51.988;5.854;2022-07-12T05:51:28;102048.50;;;19.59;71.13
70229;BME280;57617;51.988;5.854;2022-07-12T05:54:12;102052.34;;;19.63;71.38
70229;BME280;57617;51.988;5.854;2022-07-12T05:56:37;102048.81;;;19.67;71.20
70229;BME280;57617;51.988;5.854;2022-07-12T05:59:02;102048.81;;;19.72;70.94
70229;BME280;57617;51.988;5.854;2022-07-12T06:01:28;102051.88;;;19.76;71.22
70229;BME280;57617;51.988;5.854;2022-07-12T06:03:53;102057.69;;;19.84;71.06
70229;BME280;57617;51.988;5.854;2022-07-12T06:06:18;102061.28;;;19.90;70.94
70229;BME280;57617;51.988;5.854;2022-07-12T06:08:43;102058.81;;;19.98;71.12
70229;BME280;57617;51.988;5.854;2022-07-12T06:11:09;102055.50;;;20.06;70.96
70229;BME280;57617;51.988;5.854;2022-07-12T06:13:34;102056.13;;;20.13;70.64
70229;BME280;57617;51.988;5.854;2022-07-12T06:15:59;102058.59;;;20.20;70.74
70229;BME280;57617;51.988;5.854;2022-07-12T06:18:25;102057.53;;;20.26;70.57
70229;BME280;57617;51.988;5.854;2022-07-12T06:20:51;102066.88;;;20.30;70.80
70229;BME280;57617;51.988;5.854;2022-07-12T06:23:16;102061.09;;;20.36;70.74
70229;BME280;57617;51.988;5.854;2022-07-12T06:25:41;102066.34;;;20.43;70.48
70229;BME280;57617;51.988;5.854;2022-07-12T06:28:06;102061.69;;;20.43;70.42
70229;BME280;57617;51.988;5.854;2022-07-12T06:30:32;102063.59;;;20.48;70.45
70229;BME280;57617;51.988;5.854;2022-07-12T06:32:57;102047.31;;;20.46;70.30
70229;BME280;57617;51.988;5.854;2022-07-12T06:35:22;102050.34;;;20.55;70.48
70229;BME280;57617;51.988;5.854;2022-07-12T06:37:48;102048.69;;;20.59;70.33
70229;BME280;57617;51.988;5.854;2022-07-12T06:40:13;102041.78;;;20.61;70.31
70229;BME280;57617;51.988;5.854;2022-07-12T06:42:42;102044.28;;;20.63;70.25
70229;BME280;57617;51.988;5.854;2022-07-12T06:45:08;102044.28;;;20.68;70.42
70229;BME280;57617;51.988;5.854;2022-07-12T06:47:34;102044.81;;;20.70;69.76
70229;BME280;57617;51.988;5.854;2022-07-12T06:49:59;102039.56;;;20.73;70.14
70229;BME280;57617;51.988;5.854;2022-07-12T06:52:24;102044.53;;;20.76;69.96
70229;BME280;57617;51.988;5.854;2022-07-12T06:54:50;102044.78;;;20.80;70.07
70229;BME280;57617;51.988;5.854;2022-07-12T06:57:15;102027.97;;;20.71;70.13
70229;BME280;57617;51.988;5.854;2022-07-12T06:59:40;102045.63;;;20.85;70.17
70229;BME280;57617;51.988;5.854;2022-07-12T07:02:06;102045.34;;;20.92;69.98
70229;BME280;57617;51.988;5.854;2022-07-12T07:04:31;102043.41;;;20.97;69.92
70229;BME280;57617;51.988;5.854;2022-07-12T07:06:57;102042.28;;;21.03;69.64
70229;BME280;57617;51.988;5.854;2022-07-12T07:09:23;102038.69;;;21.13;69.85
70229;BME280;57617;51.988;5.854;2022-07-12T07:11:48;102044.22;;;21.18;69.51
70229;BME280;57617;51.988;5.854;2022-07-12T07:14:13;102043.91;;;21.19;69.20
70229;BME280;57617;51.988;5.854;2022-07-12T07:16:38;102052.16;;;21.29;68.86
70229;BME280;57617;51.988;5.854;2022-07-12T07:19:04;102027.03;;;21.21;68.92
70229;BME280;57617;51.988;5.854;2022-07-12T07:21:31;102052.69;;;21.46;68.58
70229;BME280;57617;51.988;5.854;2022-07-12T07:23:56;102050.16;;;21.55;68.58
70229;BME280;57617;51.988;5.854;2022-07-12T07:26:21;102044.00;;;21.63;68.46
70229;BME280;57617;51.988;5.854;2022-07-12T07:28:47;102039.31;;;21.73;68.04
70229;BME280;57617;51.988;5.854;2022-07-12T07:31:35;102052.50;;;21.86;67.82
70229;BME280;57617;51.988;5.854;2022-07-12T07:34:01;102034.84;;;21.77;67.39
70229;BME280;57617;51.988;5.854;2022-07-12T07:36:26;102058.75;;;22.07;66.58
70229;BME280;57617;51.988;5.854;2022-07-12T07:38:51;102055.94;;;22.12;66.41
70229;BME280;57617;51.988;5.854;2022-07-12T07:41:17;102048.13;;;22.19;66.16
70229;BME280;57617;51.988;5.854;2022-07-12T07:43:42;102053.34;;;22.25;66.36
70229;BME280;57617;51.988;5.854;2022-07-12T07:46:07;102053.31;;;22.30;65.99
70229;BME280;57617;51.988;5.854;2022-07-12T07:48:32;102052.75;;;22.33;65.84
70229;BME280;57617;51.988;5.854;2022-07-12T07:50:58;102055.22;;;22.35;65.96
70229;BME280;57617;51.988;5.854;2022-07-12T07:53:23;102058.53;;;22.37;65.71
70229;BME280;57617;51.988;5.854;2022-07-12T07:55:49;102049.63;;;22.40;65.66
70229;BME280;57617;51.988;5.854;2022-07-12T07:58:15;102050.47;;;22.40;65.49
70229;BME280;57617;51.988;5.854;2022-07-12T08:00:41;102047.69;;;22.45;65.49
70229;BME280;57617;51.988;5.854;2022-07-12T08:03:06;102045.72;;;22.51;65.34
70229;BME280;57617;51.988;5.854;2022-07-12T08:05:31;102039.34;;;22.50;64.77
70229;BME280;57617;51.988;5.854;2022-07-12T08:07:57;102045.03;;;22.64;64.57
70229;BME280;57617;51.988;5.854;2022-07-12T08:10:22;102041.34;;;22.73;64.72
70229;BME280;57617;51.988;5.854;2022-07-12T08:12:47;102044.84;;;22.84;64.46
70229;BME280;57617;51.988;5.854;2022-07-12T08:15:13;102039.03;;;22.85;63.88
70229;BME280;57617;51.988;5.854;2022-07-12T08:17:38;102038.13;;;22.90;64.08
70229;BME280;57617;51.988;5.854;2022-07-12T08:20:04;102035.34;;;22.90;63.61
70229;BME280;57617;51.988;5.854;2022-07-12T08:22:30;102022.63;;;22.89;63.29
70229;BME280;57617;51.988;5.854;2022-07-12T08:24:55;102043.00;;;23.03;63.68
70229;BME280;57617;51.988;5.854;2022-07-12T08:27:20;102039.09;;;23.04;63.01
70229;BME280;57617;51.988;5.854;2022-07-12T08:29:45;102050.88;;;23.14;62.97
70229;BME280;57617;51.988;5.854;2022-07-12T08:32:11;102042.88;;;23.18;62.36
70229;BME280;57617;51.988;5.854;2022-07-12T08:34:36;102046.31;;;23.28;62.47
70229;BME280;57617;51.988;5.854;2022-07-12T08:37:01;102052.38;;;23.35;62.28
70229;BME280;57617;51.988;5.854;2022-07-12T08:39:27;102044.28;;;23.39;61.73
70229;BME280;57617;51.988;5.854;2022-07-12T08:41:52;102054.41;;;23.48;61.74
70229;BME280;57617;51.988;5.854;2022-07-12T08:44:17;102060.97;;;23.57;61.33
70229;BME280;57617;51.988;5.854;2022-07-12T08:46:42;102056.75;;;23.60;60.69
70229;BME280;57617;51.988;5.854;2022-07-12T08:49:08;102058.56;;;23.69;60.06
70229;BME280;57617;51.988;5.854;2022-07-12T08:51:33;102062.34;;;23.78;59.92
70229;BME280;57617;51.988;5.854;2022-07-12T08:54:10;102062.50;;;23.87;59.03
70229;BME280;57617;51.988;5.854;2022-07-12T08:56:37;102071.84;;;23.96;59.37
70229;BME280;57617;51.988;5.854;2022-07-12T08:59:16;102064.94;;;24.12;58.06
70229;BME280;57617;51.988;5.854;2022-07-12T09:01:52;102059.44;;;24.25;57.92
70229;BME280;57617;51.988;5.854;2022-07-12T09:04:25;102062.91;;;24.36;58.66
70229;BME280;57617;51.988;5.854;2022-07-12T09:06:52;102068.53;;;24.49;58.19
70229;BME280;57617;51.988;5.854;2022-07-12T09:09:31;102062.94;;;24.68;57.02
70229;BME280;57617;51.988;5.854;2022-07-12T09:11:57;102061.63;;;24.79;57.16
70229;BME280;57617;51.988;5.854;2022-07-12T09:14:22;102055.50;;;24.95;56.73
70229;BME280;57617;51.988;5.854;2022-07-12T09:19:25;102047.63;;;25.29;55.97
70229;BME280;57617;51.988;5.854;2022-07-12T09:21:52;102044.88;;;25.43;55.16
70229;BME280;57617;51.988;5.854;2022-07-12T09:24:20;102047.00;;;25.59;54.75
70229;BME280;57617;51.988;5.854;2022-07-12T09:26:45;102037.28;;;25.70;53.83
70229;BME280;57617;51.988;5.854;2022-07-12T09:29:12;102044.38;;;25.90;53.31
70229;BME280;57617;51.988;5.854;2022-07-12T09:31:39;102038.16;;;26.06;52.79
70229;BME280;57617;51.988;5.854;2022-07-12T09:34:05;102038.94;;;26.20;52.71
70229;BME280;57617;51.988;5.854;2022-07-12T09:36:57;102040.56;;;26.35;51.45
70229;BME280;57617;51.988;5.854;2022-07-12T09:39:23;102015.47;;;26.35;51.80
70229;BME280;57617;51.988;5.854;2022-07-12T09:41:52;102039.13;;;26.59;51.41
70229;BME280;57617;51.988;5.854;2022-07-12T09:44:19;102036.25;;;26.73;50.83
70229;BME280;57617;51.988;5.854;2022-07-12T09:46:47;102036.16;;;26.86;50.21
70229;BME280;57617;51.988;5.854;2022-07-12T09:49:13;102032.97;;;27.01;49.98
70229;BME280;57617;51.988;5.854;2022-07-12T09:51:41;102024.63;;;27.10;49.63
70229;BME280;57617;51.988;5.854;2022-07-12T09:54:08;102018.31;;;27.18;49.40
70229;BME280;57617;51.988;5.854;2022-07-12T09:56:37;102017.19;;;27.36;49.17
70229;BME280;57617;51.988;5.854;2022-07-12T09:59:08;102019.38;;;27.47;48.75
70229;BME280;57617;51.988;5.854;2022-07-12T10:01:37;102012.00;;;27.51;47.86
70229;BME280;57617;51.988;5.854;2022-07-12T10:04:03;102020.88;;;27.62;47.60
70229;BME280;57617;51.988;5.854;2022-07-12T10:06:29;102013.19;;;27.67;47.29
70229;BME280;57617;51.988;5.854;2022-07-12T10:08:56;102020.75;;;27.75;46.99
70229;BME280;57617;51.988;5.854;2022-07-12T10:11:22;102026.88;;;27.86;46.70
70229;BME280;57617;51.988;5.854;2022-07-12T10:13:49;102026.06;;;27.94;46.60
70229;BME280;57617;51.988;5.854;2022-07-12T10:16:16;102025.41;;;28.05;45.96
70229;BME280;57617;51.988;5.854;2022-07-12T10:18:48;102017.22;;;28.09;46.00
70229;BME280;57617;51.988;5.854;2022-07-12T10:21:20;102018.00;;;28.18;45.17
70229;BME280;57617;51.988;5.854;2022-07-12T10:23:47;102013.41;;;28.22;45.26
70229;BME280;57617;51.988;5.854;2022-07-12T10:29:00;102019.66;;;28.53;44.39
70229;BME280;57617;51.988;5.854;2022-07-12T10:31:33;102020.13;;;28.63;44.57
70229;BME280;57617;51.988;5.854;2022-07-12T10:39:23;102015.63;;;28.88;44.93
70229;BME280;57617;51.988;5.854;2022-07-12T10:44:36;102022.50;;;29.07;43.03
70229;BME280;57617;51.988;5.854;2022-07-12T10:47:03;102023.13;;;29.13;43.05
70229;BME280;57617;51.988;5.854;2022-07-12T10:49:30;102027.09;;;29.12;42.13
70229;BME280;57617;51.988;5.854;2022-07-12T10:54:40;102021.41;;;29.29;42.32
70229;BME280;57617;51.988;5.854;2022-07-12T10:57:06;102016.78;;;29.33;42.64
70229;BME280;57617;51.988;5.854;2022-07-12T10:59:34;102021.31;;;29.46;42.53
70229;BME280;57617;51.988;5.854;2022-07-12T11:02:00;102020.28;;;29.59;42.79
70229;BME280;57617;51.988;5.854;2022-07-12T11:04:26;102015.66;;;29.63;42.07
70229;BME280;57617;51.988;5.854;2022-07-12T11:06:53;102022.56;;;29.65;41.33
70229;BME280;57617;51.988;5.854;2022-07-12T11:09:21;102025.84;;;29.67;41.29
70229;BME280;57617;51.988;5.854;2022-07-12T11:11:48;102020.03;;;29.72;41.39
70229;BME280;57617;51.988;5.854;2022-07-12T11:14:29;102020.66;;;29.78;41.10
70229;BME280;57617;51.988;5.854;2022-07-12T11:16:57;102026.22;;;29.86;40.76
70229;BME280;57617;51.988;5.854;2022-07-12T11:19:24;102017.22;;;29.93;40.49
70229;BME280;57617;51.988;5.854;2022-07-12T11:21:51;102018.94;;;30.06;40.71
70229;BME280;57617;51.988;5.854;2022-07-12T11:24:28;102023.72;;;30.14;39.81
70229;BME280;57617;51.988;5.854;2022-07-12T11:26:53;102018.38;;;30.21;39.60
70229;BME280;57617;51.988;5.854;2022-07-12T11:29:19;102015.56;;;30.21;38.74
70229;BME280;57617;51.988;5.854;2022-07-12T11:31:45;102014.06;;;30.23;39.11
70229;BME280;57617;51.988;5.854;2022-07-12T11:34:23;102017.53;;;30.20;38.92
70229;BME280;57617;51.988;5.854;2022-07-12T11:36:56;102016.09;;;30.14;38.27
70229;BME280;57617;51.988;5.854;2022-07-12T11:39:39;102005.50;;;30.20;37.63
70229;BME280;57617;51.988;5.854;2022-07-12T11:42:05;102003.03;;;30.18;38.55
70229;BME280;57617;51.988;5.854;2022-07-12T11:47:09;102015.69;;;30.24;38.65
70229;BME280;57617;51.988;5.854;2022-07-12T11:49:35;102018.81;;;30.23;38.45
70229;BME280;57617;51.988;5.854;2022-07-12T11:52:00;102010.28;;;30.19;38.28
70229;BME280;57617;51.988;5.854;2022-07-12T11:54:26;102005.84;;;30.18;38.94
70229;BME280;57617;51.988;5.854;2022-07-12T11:57:11;102003.66;;;30.24;38.11
70229;BME280;57617;51.988;5.854;2022-07-12T11:59:37;102013.22;;;30.23;38.21
70229;BME280;57617;51.988;5.854;2022-07-12T12:02:07;102011.13;;;30.20;38.47
70229;BME280;57617;51.988;5.854;2022-07-12T12:04:44;101997.31;;;30.15;37.15
70229;BME280;57617;51.988;5.854;2022-07-12T12:07:10;102002.09;;;30.14;38.37
70229;BME280;57617;51.988;5.854;2022-07-12T12:09:58;101999.19;;;30.23;38.75
70229;BME280;57617;51.988;5.854;2022-07-12T12:12:24;101986.75;;;30.32;39.27
70229;BME280;57617;51.988;5.854;2022-07-12T12:14:49;101986.66;;;30.41;39.32
70229;BME280;57617;51.988;5.854;2022-07-12T12:17:15;101988.91;;;30.47;39.16
70229;BME280;57617;51.988;5.854;2022-07-12T12:19:43;101985.75;;;30.49;38.22
70229;BME280;57617;51.988;5.854;2022-07-12T12:22:33;101973.16;;;30.55;38.01
70229;BME280;57617;51.988;5.854;2022-07-12T12:25:03;101980.88;;;30.58;38.97
70229;BME280;57617;51.988;5.854;2022-07-12T12:27:29;101984.28;;;30.63;38.66
70229;BME280;57617;51.988;5.854;2022-07-12T12:29:58;101976.00;;;30.67;38.17
70229;BME280;57617;51.988;5.854;2022-07-12T12:32:24;101985.09;;;30.64;37.80
70229;BME280;57617;51.988;5.854;2022-07-12T12:35:09;101981.41;;;30.72;37.48
70229;BME280;57617;51.988;5.854;2022-07-12T12:37:35;101978.03;;;30.78;37.74
70229;BME280;57617;51.988;5.854;2022-07-12T12:40:02;101976.97;;;30.83;37.99
70229;BME280;57617;51.988;5.854;2022-07-12T12:42:27;101980.72;;;30.87;37.03
70229;BME280;57617;51.988;5.854;2022-07-12T12:44:53;101984.00;;;30.89;36.49
70229;BME280;57617;51.988;5.854;2022-07-12T12:47:18;101973.38;;;30.94;36.22
70229;BME280;57617;51.988;5.854;2022-07-12T12:49:56;101977.81;;;30.95;35.87
70229;BME280;57617;51.988;5.854;2022-07-12T12:52:24;101974.91;;;30.92;35.91
70229;BME280;57617;51.988;5.854;2022-07-12T12:54:49;101973.25;;;30.91;35.52
70229;BME280;57617;51.988;5.854;2022-07-12T12:57:15;101982.03;;;31.01;34.92
70229;BME280;57617;51.988;5.854;2022-07-12T12:59:40;101979.81;;;31.07;34.97
70229;BME280;57617;51.988;5.854;2022-07-12T13:02:07;101966.72;;;31.11;34.80
70229;BME280;57617;51.988;5.854;2022-07-12T13:04:34;101971.72;;;31.17;34.65
70229;BME280;57617;51.988;5.854;2022-07-12T13:07:00;101977.84;;;31.19;34.58